sensor_id;sensor_type;location;lat;lon;timestamp;pressure;altitude;pressure_sealevel;temperature;humidity
55590;BME280;41452;42.780;23.116;2023-07-02T00:01:41;93774.84;;;17.45;100.00
55590;BME280;41452;42.780;23.116;2023-07-02T00:04:07;93690.34;;;16.95;100.00
55590;BME280;41452;42.780;23.116;2023-07-02T00:06:34;93717.41;;;17.16;100.00
55590;BME280;41452;42.780;23.116;2023-07-02T00:09:06;93692.50;;;16.93;100.00
55590;BME280;41452;42.780;23.116;2023-07-02T00:11:31;93748.72;;;17.33;100.00
55590;BME280;41452;42.780;23.116;2023-07-02T00:13:57;93730.88;;;17.20;100.00
55590;BME280;41452;42.780;23.116;2023-07-02T00:16:22;93767.88;;;17.30;100.00
55590;BME280;41452;42.780;23.116;2023-07-02T00:18:47;93731.28;;;17.08;100.00
55590;BME280;41452;42.780;23.116;2023-07-02T00:21:18;93739.53;;;17.06;100.00
55590;BME280;41452;42.780;23.116;2023-07-02T00:23:44;93743.63;;;16.99;100.00
55590;BME280;41452;42.780;23.116;2023-07-02T00:26:09;93739.09;;;16.99;100.00
55590;BME280;41452;42.780;23.116;2023-07-02T00:28:35;93723.31;;;16.89;100.00
55590;BME280;41452;42.780;23.116;2023-07-02T00:31:00;93746.22;;;17.04;100.00
55590;BME280;41452;42.780;23.116;2023-07-02T00:33:27;93784.38;;;17.27;100.00
55590;BME280;41452;42.780;23.116;2023-07-02T00:35:54;93770.25;;;17.13;100.00
55590;BME280;41452;42.780;23.116;2023-07-02T00:38:19;93792.97;;;17.19;100.00
55590;BME280;41452;42.780;23.116;2023-07-02T00:40:45;93748.25;;;16.88;100.00
55590;BME280;41452;42.780;23.116;2023-07-02T00:43:10;93792.47;;;17.17;100.00
55590;BME280;41452;42.780;23.116;2023-07-02T00:45:38;93796.19;;;17.16;100.00
55590;BME280;41452;42.780;23.116;2023-07-02T00:48:05;93778.81;;;17.04;100.00
55590;BME280;41452;42.780;23.116;2023-07-02T00:50:31;93753.56;;;16.88;100.00
55590;BME280;41452;42.780;23.116;2023-07-02T00:52:56;93742.31;;;16.72;100.00
55590;BME280;41452;42.780;23.116;2023-07-02T00:55:22;93788.94;;;17.02;100.00
55590;BME280;41452;42.780;23.116;2023-07-02T00:57:47;93753.59;;;16.83;100.00
55590;BME280;41452;42.780;23.116;2023-07-02T01:00:13;93778.81;;;17.04;100.00
55590;BME280;41452;42.780;23.116;2023-07-02T01:02:38;93758.72;;;16.98;100.00
55590;BME280;41452;42.780;23.116;2023-07-02T01:05:18;93722.94;;;16.71;100.00
55590;BME280;41452;42.780;23.116;2023-07-02T01:07:46;93716.91;;;16.66;100.00
55590;BME280;41452;42.780;23.116;2023-07-02T01:10:12;93777.16;;;17.08;100.00
55590;BME280;41452;42.780;23.116;2023-07-02T01:12:38;93677.63;;;16.49;100.00
55590;BME280;41452;42.780;23.116;2023-07-02T01:15:05;93740.69;;;17.00;100.00
55590;BME280;41452;42.780;23.116;2023-07-02T01:17:32;93744.34;;;17.04;100.00
55590;BME280;41452;42.780;23.116;2023-07-02T01:20:07;93741.41;;;17.06;100.00
55590;BME280;41452;42.780;23.116;2023-07-02T01:22:34;93753.59;;;17.26;100.00
55590;BME280;41452;42.780;23.116;2023-07-02T01:24:59;93750.88;;;17.31;100.00
55590;BME280;41452;42.780;23.116;2023-07-02T01:27:28;93731.38;;;17.22;100.00
55590;BME280;41452;42.780;23.116;2023-07-02T01:29:53;93747.00;;;17.23;100.00
55590;BME280;41452;42.780;23.116;2023-07-02T01:32:19;93730.28;;;17.23;100.00
55590;BME280;41452;42.780;23.116;2023-07-02T01:34:45;93749.72;;;17.37;100.00
55590;BME280;41452;42.780;23.116;2023-07-02T01:37:15;93710.78;;;17.14;100.00
55590;BME280;41452;42.780;23.116;2023-07-02T01:39:42;93711.72;;;17.04;100.00
55590;BME280;41452;42.780;23.116;2023-07-02T01:42:12;93747.06;;;17.37;100.00
55590;BME280;41452;42.780;23.116;2023-07-02T01:44:39;93640.75;;;16.71;100.00
55590;BME280;41452;42.780;23.116;2023-07-02T01:47:05;93724.34;;;17.31;100.00
55590;BME280;41452;42.780;23.116;2023-07-02T01:49:31;93745.00;;;17.34;100.00
55590;BME280;41452;42.780;23.116;2023-07-02T01:51:56;93735.53;;;17.28;100.00
55590;BME280;41452;42.780;23.116;2023-07-02T01:54:24;93717.09;;;17.18;100.00
55590;BME280;41452;42.780;23.116;2023-07-02T01:56:50;93651.94;;;16.68;100.00
55590;BME280;41452;42.780;23.116;2023-07-02T01:59:15;93733.66;;;17.28;100.00
55590;BME280;41452;42.780;23.116;2023-07-02T02:01:42;93654.91;;;16.86;100.00
55590;BME280;41452;42.780;23.116;2023-07-02T02:04:08;93661.25;;;16.90;100.00
55590;BME280;41452;42.780;23.116;2023-07-02T02:06:33;93725.19;;;17.26;100.00
55590;BME280;41452;42.780;23.116;2023-07-02T02:08:59;93709.44;;;17.16;100.00
55590;BME280;41452;42.780;23.116;2023-07-02T02:11:25;93701.53;;;17.11;100.00
55590;BME280;41452;42.780;23.116;2023-07-02T02:13:50;93709.50;;;17.11;100.00
55590;BME280;41452;42.780;23.116;2023-07-02T02:16:16;93704.84;;;17.22;100.00
55590;BME280;41452;42.780;23.116;2023-07-02T02:18:41;93695.00;;;17.22;100.00
55590;BME280;41452;42.780;23.116;2023-07-02T02:21:07;93698.38;;;17.28;100.00
55590;BME280;41452;42.780;23.116;2023-07-02T02:23:32;93698.59;;;17.32;100.00
55590;BME280;41452;42.780;23.116;2023-07-02T02:25:58;93691.13;;;17.34;100.00
55590;BME280;41452;42.780;23.116;2023-07-02T02:28:23;93679.94;;;17.37;100.00
55590;BME280;41452;42.780;23.116;2023-07-02T02:30:49;93645.66;;;17.21;100.00
55590;BME280;41452;42.780;23.116;2023-07-02T02:33:14;93668.19;;;17.43;100.00
55590;BME280;41452;42.780;23.116;2023-07-02T02:35:39;93623.09;;;17.05;100.00
55590;BME280;41452;42.780;23.116;2023-07-02T02:38:05;93641.59;;;17.10;100.00
55590;BME280;41452;42.780;23.116;2023-07-02T02:40:30;93609.75;;;16.91;100.00
55590;BME280;41452;42.780;23.116;2023-07-02T02:42:56;93683.16;;;17.34;100.00
55590;BME280;41452;42.780;23.116;2023-07-02T02:45:21;93710.44;;;17.39;100.00
55590;BME280;41452;42.780;23.116;2023-07-02T02:47:47;93696.06;;;17.40;100.00
55590;BME280;41452;42.780;23.116;2023-07-02T02:50:13;93658.22;;;17.16;100.00
55590;BME280;41452;42.780;23.116;2023-07-02T02:52:38;93686.00;;;17.23;100.00
55590;BME280;41452;42.780;23.116;2023-07-02T02:55:06;93632.19;;;16.80;100.00
55590;BME280;41452;42.780;23.116;2023-07-02T02:57:32;93664.13;;;16.94;100.00
55590;BME280;41452;42.780;23.116;2023-07-02T02:59:59;93671.56;;;17.10;100.00
55590;BME280;41452;42.780;23.116;2023-07-02T03:02:24;93700.88;;;17.19;100.00
55590;BME280;41452;42.780;23.116;2023-07-02T03:04:50;93717.63;;;17.20;100.00
55590;BME280;41452;42.780;23.116;2023-07-02T03:07:15;93736.19;;;17.20;100.00
55590;BME280;41452;42.780;23.116;2023-07-02T03:09:41;93687.75;;;16.90;100.00
55590;BME280;41452;42.780;23.116;2023-07-02T03:12:06;93737.69;;;17.26;100.00
55590;BME280;41452;42.780;23.116;2023-07-02T03:14:32;93726.63;;;17.19;100.00
55590;BME280;41452;42.780;23.116;2023-07-02T03:16:58;93660.91;;;16.72;100.00
55590;BME280;41452;42.780;23.116;2023-07-02T03:19:23;93727.69;;;17.18;100.00
55590;BME280;41452;42.780;23.116;2023-07-02T03:21:49;93696.44;;;16.96;100.00
55590;BME280;41452;42.780;23.116;2023-07-02T03:24:14;93701.63;;;17.06;100.00
55590;BME280;41452;42.780;23.116;2023-07-02T03:26:44;93720.75;;;17.22;100.00
55590;BME280;41452;42.780;23.116;2023-07-02T03:29:10;93735.88;;;17.21;100.00
55590;BME280;41452;42.780;23.116;2023-07-02T03:31:35;93683.81;;;16.87;100.00
55590;BME280;41452;42.780;23.116;2023-07-02T03:34:08;93721.97;;;17.10;100.00
55590;BME280;41452;42.780;23.116;2023-07-02T03:36:35;93733.38;;;17.30;100.00
55590;BME280;41452;42.780;23.116;2023-07-02T03:39:00;93730.22;;;17.28;100.00
55590;BME280;41452;42.780;23.116;2023-07-02T03:41:26;93728.66;;;17.27;100.00
55590;BME280;41452;42.780;23.116;2023-07-02T03:43:51;93731.25;;;17.32;100.00
55590;BME280;41452;42.780;23.116;2023-07-02T03:46:17;93688.28;;;17.11;100.00
55590;BME280;41452;42.780;23.116;2023-07-02T03:48:42;93734.81;;;17.41;100.00
55590;BME280;41452;42.780;23.116;2023-07-02T03:51:07;93705.50;;;17.33;100.00
55590;BME280;41452;42.780;23.116;2023-07-02T03:53:33;93726.38;;;17.39;100.00
55590;BME280;41452;42.780;23.116;2023-07-02T03:55:58;93739.25;;;17.46;100.00
55590;BME280;41452;42.780;23.116;2023-07-02T03:58:24;93707.22;;;17.23;100.00
55590;BME280;41452;42.780;23.116;2023-07-02T04:00:49;93634.25;;;16.64;100.00
55590;BME280;41452;42.780;23.116;2023-07-02T04:03:16;93747.59;;;17.39;100.00
55590;BME280;41452;42.780;23.116;2023-07-02T04:05:42;93737.63;;;17.31;100.00
55590;BME280;41452;42.780;23.116;2023-07-02T04:08:07;93747.22;;;17.46;100.00
55590;BME280;41452;42.780;23.116;2023-07-02T04:10:33;93758.78;;;17.36;100.00
55590;BME280;41452;42.780;23.116;2023-07-02T04:12:58;93754.53;;;17.35;100.00
55590;BME280;41452;42.780;23.116;2023-07-02T04:15:23;93677.16;;;16.90;100.00
55590;BME280;41452;42.780;23.116;2023-07-02T04:17:50;93756.56;;;17.43;100.00
55590;BME280;41452;42.780;23.116;2023-07-02T04:20:16;93730.66;;;17.16;100.00
55590;BME280;41452;42.780;23.116;2023-07-02T04:22:44;93752.69;;;17.36;100.00
55590;BME280;41452;42.780;23.116;2023-07-02T04:25:09;93767.88;;;17.49;100.00
55590;BME280;41452;42.780;23.116;2023-07-02T04:27:35;93711.66;;;17.09;100.00
55590;BME280;41452;42.780;23.116;2023-07-02T04:30:00;93794.56;;;17.58;100.00
55590;BME280;41452;42.780;23.116;2023-07-02T04:45:25;93802.72;;;18.65;100.00
55590;BME280;41452;42.780;23.116;2023-07-02T04:47:51;93792.88;;;18.52;100.00
55590;BME280;41452;42.780;23.116;2023-07-02T04:50:17;93804.25;;;18.38;100.00
55590;BME280;41452;42.780;23.116;2023-07-02T04:52:42;93781.75;;;18.17;100.00
55590;BME280;41452;42.780;23.116;2023-07-02T04:55:08;93809.03;;;18.22;100.00
55590;BME280;41452;42.780;23.116;2023-07-02T04:57:33;93787.13;;;17.98;100.00
55590;BME280;41452;42.780;23.116;2023-07-02T04:59:59;93797.06;;;18.06;100.00
55590;BME280;41452;42.780;23.116;2023-07-02T05:02:24;93795.50;;;18.05;100.00
55590;BME280;41452;42.780;23.116;2023-07-02T05:04:50;93812.66;;;18.13;100.00
55590;BME280;41452;42.780;23.116;2023-07-02T05:07:18;93792.84;;;18.05;100.00
55590;BME280;41452;42.780;23.116;2023-07-02T05:09:43;93800.22;;;18.08;100.00
55590;BME280;41452;42.780;23.116;2023-07-02T05:12:09;93771.75;;;17.95;100.00
55590;BME280;41452;42.780;23.116;2023-07-02T05:14:34;93796.13;;;18.16;100.00
55590;BME280;41452;42.780;23.116;2023-07-02T05:17:00;93805.94;;;18.15;100.00
55590;BME280;41452;42.780;23.116;2023-07-02T05:19:26;93799.09;;;18.14;100.00
55590;BME280;41452;42.780;23.116;2023-07-02T05:21:52;93800.44;;;18.12;100.00
55590;BME280;41452;42.780;23.116;2023-07-02T05:24:17;93786.81;;;17.99;100.00
55590;BME280;41452;42.780;23.116;2023-07-02T05:26:42;93731.28;;;17.65;100.00
55590;BME280;41452;42.780;23.116;2023-07-02T05:29:08;93792.94;;;18.00;100.00
55590;BME280;41452;42.780;23.116;2023-07-02T05:31:33;93789.19;;;18.01;100.00
55590;BME280;41452;42.780;23.116;2023-07-02T05:33:59;93790.00;;;18.01;100.00
55590;BME280;41452;42.780;23.116;2023-07-02T05:36:25;93813.56;;;18.22;100.00
55590;BME280;41452;42.780;23.116;2023-07-02T05:38:50;93812.22;;;18.24;100.00
55590;BME280;41452;42.780;23.116;2023-07-02T05:41:20;93820.75;;;18.21;100.00
55590;BME280;41452;42.780;23.116;2023-07-02T05:43:45;93805.47;;;18.13;100.00
55590;BME280;41452;42.780;23.116;2023-07-02T05:46:10;93791.19;;;18.09;100.00
55590;BME280;41452;42.780;23.116;2023-07-02T05:48:37;93820.59;;;18.32;100.00
55590;BME280;41452;42.780;23.116;2023-07-02T05:51:03;93816.63;;;18.29;100.00
55590;BME280;41452;42.780;23.116;2023-07-02T05:53:28;93832.00;;;18.32;100.00
55590;BME280;41452;42.780;23.116;2023-07-02T05:55:53;93822.94;;;18.33;100.00
55590;BME280;41452;42.780;23.116;2023-07-02T05:58:19;93824.16;;;18.41;100.00
55590;BME280;41452;42.780;23.116;2023-07-02T06:00:44;93816.25;;;18.36;100.00
55590;BME280;41452;42.780;23.116;2023-07-02T06:03:17;93814.38;;;18.36;100.00
55590;BME280;41452;42.780;23.116;2023-07-02T06:05:48;93809.84;;;18.37;100.00
55590;BME280;41452;42.780;23.116;2023-07-02T06:08:15;93807.19;;;18.37;100.00
55590;BME280;41452;42.780;23.116;2023-07-02T06:10:41;93803.25;;;18.34;100.00
55590;BME280;41452;42.780;23.116;2023-07-02T06:13:06;93792.44;;;18.31;100.00
55590;BME280;41452;42.780;23.116;2023-07-02T06:15:31;93784.75;;;18.29;100.00
55590;BME280;41452;42.780;23.116;2023-07-02T06:17:57;93811.00;;;18.50;100.00
55590;BME280;41452;42.780;23.116;2023-07-02T06:20:22;93785.94;;;18.37;100.00
55590;BME280;41452;42.780;23.116;2023-07-02T06:22:47;93806.28;;;18.60;100.00
55590;BME280;41452;42.780;23.116;2023-07-02T06:25:13;93800.59;;;18.67;100.00
55590;BME280;41452;42.780;23.116;2023-07-02T06:27:38;93764.69;;;18.51;100.00
55590;BME280;41452;42.780;23.116;2023-07-02T06:30:04;93793.50;;;18.76;100.00
55590;BME280;41452;42.780;23.116;2023-07-02T06:32:31;93791.25;;;18.84;100.00
55590;BME280;41452;42.780;23.116;2023-07-02T06:34:56;93782.91;;;18.90;100.00
55590;BME280;41452;42.780;23.116;2023-07-02T06:37:28;93791.25;;;18.97;100.00
55590;BME280;41452;42.780;23.116;2023-07-02T06:39:58;93763.75;;;18.88;100.00
55590;BME280;41452;42.780;23.116;2023-07-02T06:42:24;93789.38;;;19.12;100.00
55590;BME280;41452;42.780;23.116;2023-07-02T06:44:49;93786.44;;;19.13;100.00
55590;BME280;41452;42.780;23.116;2023-07-02T06:47:15;93778.16;;;19.01;100.00
55590;BME280;41452;42.780;23.116;2023-07-02T06:49:40;93787.78;;;19.25;100.00
55590;BME280;41452;42.780;23.116;2023-07-02T06:52:06;93774.19;;;19.12;100.00
55590;BME280;41452;42.780;23.116;2023-07-02T06:54:31;93788.38;;;19.35;100.00
55590;BME280;41452;42.780;23.116;2023-07-02T06:56:56;93772.78;;;19.43;100.00
55590;BME280;41452;42.780;23.116;2023-07-02T06:59:22;93752.41;;;19.24;100.00
55590;BME280;41452;42.780;23.116;2023-07-02T07:01:49;93771.56;;;19.49;100.00
55590;BME280;41452;42.780;23.116;2023-07-02T07:04:14;93754.44;;;19.41;100.00
55590;BME280;41452;42.780;23.116;2023-07-02T07:06:39;93755.91;;;19.47;100.00
55590;BME280;41452;42.780;23.116;2023-07-02T07:09:05;93732.25;;;19.46;100.00
55590;BME280;41452;42.780;23.116;2023-07-02T07:11:30;93777.75;;;19.72;100.00
55590;BME280;41452;42.780;23.116;2023-07-02T07:13:55;93764.41;;;19.72;100.00
55590;BME280;41452;42.780;23.116;2023-07-02T07:16:21;93744.66;;;19.73;100.00
55590;BME280;41452;42.780;23.116;2023-07-02T07:18:47;93746.47;;;19.78;100.00
55590;BME280;41452;42.780;23.116;2023-07-02T07:21:12;93768.69;;;19.96;100.00
55590;BME280;41452;42.780;23.116;2023-07-02T07:23:39;93775.28;;;19.98;100.00
55590;BME280;41452;42.780;23.116;2023-07-02T07:26:05;93757.97;;;20.09;100.00
55590;BME280;41452;42.780;23.116;2023-07-02T07:28:30;93757.34;;;20.12;100.00
55590;BME280;41452;42.780;23.116;2023-07-02T07:30:56;93733.00;;;20.05;100.00
55590;BME280;41452;42.780;23.116;2023-07-02T07:33:21;93771.31;;;20.41;98.15
55590;BME280;41452;42.780;23.116;2023-07-02T07:35:47;93767.09;;;20.40;100.00
55590;BME280;41452;42.780;23.116;2023-07-02T07:38:15;93764.31;;;20.54;98.98
55590;BME280;41452;42.780;23.116;2023-07-02T07:40:42;93757.25;;;20.49;97.60
55590;BME280;41452;42.780;23.116;2023-07-02T07:43:08;93773.91;;;20.55;100.00
55590;BME280;41452;42.780;23.116;2023-07-02T07:45:33;93760.34;;;20.65;99.00
55590;BME280;41452;42.780;23.116;2023-07-02T07:47:59;93746.22;;;20.64;100.00
55590;BME280;41452;42.780;23.116;2023-07-02T07:50:25;93767.91;;;20.80;100.00
55590;BME280;41452;42.780;23.116;2023-07-02T07:52:50;93756.16;;;20.81;95.95
55590;BME280;41452;42.780;23.116;2023-07-02T07:55:16;93762.16;;;20.96;94.77
55590;BME280;41452;42.780;23.116;2023-07-02T07:57:42;93777.69;;;20.94;95.03
55590;BME280;41452;42.780;23.116;2023-07-02T08:00:08;93780.44;;;21.11;95.40
55590;BME280;41452;42.780;23.116;2023-07-02T08:02:37;93781.38;;;21.15;97.29
55590;BME280;41452;42.780;23.116;2023-07-02T08:05:03;93785.16;;;21.23;95.87
55590;BME280;41452;42.780;23.116;2023-07-02T08:07:32;93761.75;;;21.20;96.26
55590;BME280;41452;42.780;23.116;2023-07-02T08:09:58;93770.28;;;21.31;96.94
55590;BME280;41452;42.780;23.116;2023-07-02T08:12:24;93777.66;;;21.42;94.47
55590;BME280;41452;42.780;23.116;2023-07-02T08:14:51;93785.28;;;21.67;91.59
55590;BME280;41452;42.780;23.116;2023-07-02T08:17:17;93768.47;;;21.66;87.23
55590;BME280;41452;42.780;23.116;2023-07-02T08:19:42;93778.19;;;21.71;89.03
55590;BME280;41452;42.780;23.116;2023-07-02T08:22:08;93768.78;;;21.73;87.94
55590;BME280;41452;42.780;23.116;2023-07-02T08:24:33;93779.94;;;21.84;90.48
55590;BME280;41452;42.780;23.116;2023-07-02T08:26:59;93779.16;;;21.92;92.52
55590;BME280;41452;42.780;23.116;2023-07-02T08:29:26;93788.41;;;22.03;83.88
55590;BME280;41452;42.780;23.116;2023-07-02T08:31:51;93785.44;;;22.05;87.63
55590;BME280;41452;42.780;23.116;2023-07-02T08:34:17;93757.44;;;22.02;86.96
55590;BME280;41452;42.780;23.116;2023-07-02T08:36:42;93783.69;;;22.18;85.36
55590;BME280;41452;42.780;23.116;2023-07-02T08:39:08;93724.75;;;21.79;92.11
55590;BME280;41452;42.780;23.116;2023-07-02T08:41:44;93763.38;;;22.17;85.58
55590;BME280;41452;42.780;23.116;2023-07-02T08:44:14;93787.44;;;22.43;80.59
55590;BME280;41452;42.780;23.116;2023-07-02T08:46:41;93780.84;;;22.40;81.72
55590;BME280;41452;42.780;23.116;2023-07-02T08:49:07;93775.34;;;22.37;79.92
55590;BME280;41452;42.780;23.116;2023-07-02T08:51:33;93768.09;;;22.37;82.43
55590;BME280;41452;42.780;23.116;2023-07-02T08:53:58;93790.72;;;22.49;84.30
55590;BME280;41452;42.780;23.116;2023-07-02T08:56:24;93764.50;;;22.25;84.77
55590;BME280;41452;42.780;23.116;2023-07-02T08:58:49;93787.75;;;22.42;81.41
55590;BME280;41452;42.780;23.116;2023-07-02T09:01:15;93793.25;;;22.45;82.64
55590;BME280;41452;42.780;23.116;2023-07-02T09:03:41;93784.28;;;22.50;80.66
55590;BME280;41452;42.780;23.116;2023-07-02T09:06:09;93786.50;;;22.48;79.75
55590;BME280;41452;42.780;23.116;2023-07-02T09:08:35;93777.34;;;22.49;82.21
55590;BME280;41452;42.780;23.116;2023-07-02T09:11:12;93771.41;;;22.43;83.89
55590;BME280;41452;42.780;23.116;2023-07-02T09:13:47;93781.56;;;22.67;83.44
55590;BME280;41452;42.780;23.116;2023-07-02T09:16:32;93787.53;;;22.73;77.25
55590;BME280;41452;42.780;23.116;2023-07-02T09:19:05;93785.75;;;22.86;78.93
55590;BME280;41452;42.780;23.116;2023-07-02T09:21:47;93782.56;;;22.92;78.11
55590;BME280;41452;42.780;23.116;2023-07-02T09:24:18;93785.81;;;23.15;75.53
55590;BME280;41452;42.780;23.116;2023-07-02T09:26:55;93759.06;;;23.07;79.50
55590;BME280;41452;42.780;23.116;2023-07-02T09:29:31;93782.38;;;23.36;77.39
55590;BME280;41452;42.780;23.116;2023-07-02T09:32:01;93764.56;;;23.40;80.26
55590;BME280;41452;42.780;23.116;2023-07-02T09:34:31;93770.72;;;23.62;78.59
55590;BME280;41452;42.780;23.116;2023-07-02T09:36:57;93770.06;;;23.65;71.95
55590;BME280;41452;42.780;23.116;2023-07-02T09:39:28;93739.78;;;23.43;68.01
55590;BME280;41452;42.780;23.116;2023-07-02T09:41:58;93756.13;;;23.71;78.71
55590;BME280;41452;42.780;23.116;2023-07-02T09:44:30;93754.06;;;23.77;73.26
55590;BME280;41452;42.780;23.116;2023-07-02T09:47:05;93770.00;;;23.95;72.45
55590;BME280;41452;42.780;23.116;2023-07-02T09:49:35;93767.13;;;24.00;75.78
55590;BME280;41452;42.780;23.116;2023-07-02T09:52:03;93761.91;;;24.03;70.88
55590;BME280;41452;42.780;23.116;2023-07-02T09:54:29;93760.16;;;24.07;70.17
55590;BME280;41452;42.780;23.116;2023-07-02T09:56:56;93756.38;;;24.21;69.82
55590;BME280;41452;42.780;23.116;2023-07-02T09:59:22;93757.41;;;24.28;67.40
55590;BME280;41452;42.780;23.116;2023-07-02T10:01:47;93751.50;;;24.35;72.99
55590;BME280;41452;42.780;23.116;2023-07-02T10:04:14;93730.13;;;24.26;74.02
55590;BME280;41452;42.780;23.116;2023-07-02T10:06:50;93738.41;;;24.34;71.61
55590;BME280;41452;42.780;23.116;2023-07-02T10:09:20;93738.66;;;24.41;67.51
55590;BME280;41452;42.780;23.116;2023-07-02T10:11:46;93743.97;;;24.16;69.31
55590;BME280;41452;42.780;23.116;2023-07-02T10:14:11;93725.44;;;24.23;71.23
55590;BME280;41452;42.780;23.116;2023-07-02T10:16:53;93741.94;;;24.46;71.50
55590;BME280;41452;42.780;23.116;2023-07-02T10:19:20;93738.63;;;24.62;74.97
55590;BME280;41452;42.780;23.116;2023-07-02T10:21:46;93727.69;;;24.92;75.37
55590;BME280;41452;42.780;23.116;2023-07-02T10:24:12;93742.56;;;25.14;69.34
55590;BME280;41452;42.780;23.116;2023-07-02T10:26:38;93749.63;;;25.18;76.49
55590;BME280;41452;42.780;23.116;2023-07-02T10:29:03;93751.97;;;25.20;69.01
55590;BME280;41452;42.780;23.116;2023-07-02T10:31:29;93750.16;;;25.12;65.94
55590;BME280;41452;42.780;23.116;2023-07-02T10:33:55;93744.56;;;25.17;65.60
55590;BME280;41452;42.780;23.116;2023-07-02T10:36:22;93747.94;;;25.14;67.34
55590;BME280;41452;42.780;23.116;2023-07-02T10:38:49;93747.25;;;25.17;71.38
55590;BME280;41452;42.780;23.116;2023-07-02T10:41:28;93737.19;;;25.14;70.87
55590;BME280;41452;42.780;23.116;2023-07-02T10:43:54;93751.09;;;25.16;71.24
55590;BME280;41452;42.780;23.116;2023-07-02T10:46:29;93754.53;;;25.16;72.71
55590;BME280;41452;42.780;23.116;2023-07-02T10:48:55;93761.59;;;25.09;73.50
55590;BME280;41452;42.780;23.116;2023-07-02T10:51:21;93753.84;;;24.37;73.06
55590;BME280;41452;42.780;23.116;2023-07-02T10:53:59;93764.91;;;24.02;77.77
55590;BME280;41452;42.780;23.116;2023-07-02T10:56:26;93788.16;;;23.68;78.90
55590;BME280;41452;42.780;23.116;2023-07-02T10:58:55;93784.41;;;23.39;80.29
55590;BME280;41452;42.780;23.116;2023-07-02T11:01:28;93758.63;;;22.96;81.99
55590;BME280;41452;42.780;23.116;2023-07-02T11:06:24;93771.66;;;22.59;77.39
55590;BME280;41452;42.780;23.116;2023-07-02T11:08:49;93769.84;;;22.25;77.44
55590;BME280;41452;42.780;23.116;2023-07-02T11:11:15;93755.84;;;22.19;77.53
55590;BME280;41452;42.780;23.116;2023-07-02T11:13:48;93774.56;;;22.19;78.38
55590;BME280;41452;42.780;23.116;2023-07-02T11:16:32;93768.28;;;22.06;79.62
55590;BME280;41452;42.780;23.116;2023-07-02T11:19:08;93785.13;;;22.15;81.77
55590;BME280;41452;42.780;23.116;2023-07-02T11:21:34;93774.91;;;22.09;85.52
55590;BME280;41452;42.780;23.116;2023-07-02T11:24:07;93760.75;;;21.99;87.73
55590;BME280;41452;42.780;23.116;2023-07-02T11:26:39;93761.53;;;21.74;89.48
55590;BME280;41452;42.780;23.116;2023-07-02T11:29:11;93782.00;;;21.87;91.29
55590;BME280;41452;42.780;23.116;2023-07-02T11:31:37;93778.19;;;21.79;95.24
55590;BME280;41452;42.780;23.116;2023-07-02T11:34:14;93783.06;;;21.86;94.89
55590;BME280;41452;42.780;23.116;2023-07-02T11:36:40;93770.34;;;21.83;96.36
55590;BME280;41452;42.780;23.116;2023-07-02T11:39:05;93774.59;;;21.84;96.22
55590;BME280;41452;42.780;23.116;2023-07-02T11:41:44;93761.38;;;21.79;95.69
55590;BME280;41452;42.780;23.116;2023-07-02T11:44:10;93775.06;;;21.86;99.28
55590;BME280;41452;42.780;23.116;2023-07-02T11:46:35;93768.28;;;21.89;99.68
55590;BME280;41452;42.780;23.116;2023-07-02T11:49:02;93753.69;;;21.86;99.62
55590;BME280;41452;42.780;23.116;2023-07-02T11:51:29;93760.72;;;22.08;98.82
55590;BME280;41452;42.780;23.116;2023-07-02T11:53:55;93767.34;;;22.19;98.30
55590;BME280;41452;42.780;23.116;2023-07-02T11:56:20;93767.00;;;22.21;99.46
55590;BME280;41452;42.780;23.116;2023-07-02T11:58:45;93760.09;;;22.20;100.00
55590;BME280;41452;42.780;23.116;2023-07-02T12:01:11;93760.41;;;22.27;100.00
55590;BME280;41452;42.780;23.116;2023-07-02T12:03:36;93755.84;;;22.28;99.48
55590;BME280;41452;42.780;23.116;2023-07-02T12:06:02;93749.53;;;22.41;97.80
55590;BME280;41452;42.780;23.116;2023-07-02T12:08:27;93752.19;;;22.50;97.05
55590;BME280;41452;42.780;23.116;2023-07-02T12:10:53;93750.72;;;22.61;95.98
55590;BME280;41452;42.780;23.116;2023-07-02T12:13:18;93750.88;;;22.65;100.00
55590;BME280;41452;42.780;23.116;2023-07-02T12:15:49;93732.16;;;22.56;97.04
55590;BME280;41452;42.780;23.116;2023-07-02T12:18:16;93735.78;;;22.60;100.00
55590;BME280;41452;42.780;23.116;2023-07-02T12:20:42;93713.81;;;22.46;100.00
55590;BME280;41452;42.780;23.116;2023-07-02T12:23:07;93737.50;;;22.56;100.00
55590;BME280;41452;42.780;23.116;2023-07-02T12:25:33;93750.41;;;22.63;96.57
55590;BME280;41452;42.780;23.116;2023-07-02T12:27:58;93766.25;;;22.76;96.39
55590;BME280;41452;42.780;23.116;2023-07-02T12:30:23;93768.19;;;22.67;96.72
55590;BME280;41452;42.780;23.116;2023-07-02T12:32:49;93757.91;;;22.78;100.00
55590;BME280;41452;42.780;23.116;2023-07-02T12:35:15;93739.22;;;22.69;100.00
55590;BME280;41452;42.780;23.116;2023-07-02T12:37:49;93746.25;;;22.74;100.00
55590;BME280;41452;42.780;23.116;2023-07-02T12:40:15;93749.75;;;22.74;99.37
55590;BME280;41452;42.780;23.116;2023-07-02T12:42:41;93763.75;;;22.71;97.68
55590;BME280;41452;42.780;23.116;2023-07-02T12:45:08;93753.53;;;22.65;97.31
55590;BME280;41452;42.780;23.116;2023-07-02T12:47:34;93738.81;;;22.50;96.24
55590;BME280;41452;42.780;23.116;2023-07-02T12:49:59;93756.53;;;22.63;97.89
55590;BME280;41452;42.780;23.116;2023-07-02T12:52:25;93755.94;;;22.57;100.00
55590;BME280;41452;42.780;23.116;2023-07-02T12:54:50;93771.81;;;22.63;100.00
55590;BME280;41452;42.780;23.116;2023-07-02T12:57:17;93771.66;;;22.59;100.00